Time;durP1;ratioP1;P1;durP2;ratioP2;P2;SDS_P1;SDS_P2;PMS_P1;PMS_P2;Temp;Humidity;BMP_temperature;BMP_pressure;BME280_temperature;BME280_humidity;BME280_pressure;Samples;Min_cycle;Max_cycle;Signal;HPM_P1;HPM_P2
2021/06/07 00:02:17;;;;;;;;;11.50;10.00;;;;;;;;5000817;28;8849;-78
2021/06/07 00:04:44;;;;;;;;;13.50;13.50;;;;;;;;4999956;28;8882;-76
2021/06/07 00:07:12;;;;;;;;;10.00;10.00;;;;;;;;5003959;28;8984;-80
2021/06/07 00:09:41;;;;;;;;;11.50;11.50;;;;;;;;4999715;28;8863;-84
2021/06/07 00:12:12;;;;;;;;;11.75;11.75;;;;;;;;5003306;28;8866;-80
2021/06/07 00:14:39;;;;;;;;;12.25;12.25;;;;;;;;4997918;28;8854;-81
2021/06/07 00:17:07;;;;;;;;;13.25;10.50;;;;;;;;5001213;28;8866;-84
2021/06/07 00:19:36;;;;;;;;;9.50;9.50;;;;;;;;5002355;28;9628;-83
2021/06/07 00:22:03;;;;;;;;;12.75;9.50;;;;;;;;4996804;28;8887;-83
2021/06/07 00:24:30;;;;;;;;;14.00;12.00;;;;;;;;4996835;28;9112;-84
2021/06/07 00:26:58;;;;;;;;;11.00;10.50;;;;;;;;4997942;28;9080;-75
2021/06/07 00:29:25;;;;;;;;;11.25;11.25;;;;;;;;5001853;28;8977;-79
2021/06/07 00:31:52;;;;;;;;;13.25;11.75;;;;;;;;4998713;28;9013;-84
2021/06/07 00:34:19;;;;;;;;;11.00;11.00;;;;;;;;5000796;28;8919;-85
2021/06/07 00:36:46;;;;;;;;;12.50;10.50;;;;;;;;5002350;28;8860;-78
2021/06/07 00:39:15;;;;;;;;;9.50;7.25;;;;;;;;5001350;28;9718;-78
2021/06/07 00:41:43;;;;;;;;;7.75;5.75;;;;;;;;5004616;28;8890;-77
2021/06/07 00:44:13;;;;;;;;;8.75;6.00;;;;;;;;5006480;28;8884;-78
2021/06/07 00:46:42;;;;;;;;;10.75;10.75;;;;;;;;5002737;28;8886;-83
2021/06/07 00:49:09;;;;;;;;;11.00;11.00;;;;;;;;5003986;28;8885;-85
2021/06/07 00:51:37;;;;;;;;;13.00;11.50;;;;;;;;5004378;28;8904;-86
2021/06/07 00:54:05;;;;;;;;;14.00;10.50;;;;;;;;5007245;28;8887;-85
2021/06/07 00:56:32;;;;;;;;;13.67;12.00;;;;;;;;5005404;28;8884;-86
2021/06/07 00:59:00;;;;;;;;;15.00;11.75;;;;;;;;5006349;28;9121;-82
2021/06/07 01:01:28;;;;;;;;;12.67;12.00;;;;;;;;5005127;28;8937;-80
2021/06/07 01:03:57;;;;;;;;;16.00;12.00;;;;;;;;5006933;28;9066;-79
2021/06/07 01:06:24;;;;;;;;;12.00;12.00;;;;;;;;5005917;28;9028;-79
2021/06/07 01:08:51;;;;;;;;;9.67;9.67;;;;;;;;5002458;28;8963;-81
2021/06/07 01:11:21;;;;;;;;;12.00;12.00;;;;;;;;5003629;28;8972;-84
2021/06/07 01:13:48;;;;;;;;;13.50;11.50;;;;;;;;5003521;28;9113;-76
2021/06/07 01:16:15;;;;;;;;;12.00;9.50;;;;;;;;5004686;28;8981;-82
2021/06/07 01:18:43;;;;;;;;;11.75;10.75;;;;;;;;5006422;28;8874;-81
2021/06/07 01:21:12;;;;;;;;;10.00;10.00;;;;;;;;5006436;28;8892;-82
2021/06/07 01:23:42;;;;;;;;;12.67;12.67;;;;;;;;5006199;28;9026;-85
2021/06/07 01:26:11;;;;;;;;;13.00;13.00;;;;;;;;5001515;28;9080;-78
2021/06/07 01:28:39;;;;;;;;;14.00;11.00;;;;;;;;5005767;28;9062;-84
2021/06/07 01:31:06;;;;;;;;;14.33;11.00;;;;;;;;5003249;28;9102;-83
2021/06/07 01:33:34;;;;;;;;;11.00;7.33;;;;;;;;5005896;28;8945;-80
2021/06/07 01:36:03;;;;;;;;;16.67;13.00;;;;;;;;5002694;28;9099;-80
2021/06/07 01:38:30;;;;;;;;;11.67;10.00;;;;;;;;5004945;28;10044;-82
2021/06/07 01:41:01;;;;;;;;;11.33;11.00;;;;;;;;5003783;28;9806;-75
2021/06/07 01:43:29;;;;;;;;;14.67;12.00;;;;;;;;5003939;28;9160;-83
2021/06/07 01:45:56;;;;;;;;;17.00;13.00;;;;;;;;5002812;28;9090;-85
2021/06/07 01:48:23;;;;;;;;;13.67;13.67;;;;;;;;5001161;28;9987;-85
2021/06/07 01:50:51;;;;;;;;;13.00;13.00;;;;;;;;5006381;28;9405;-78
2021/06/07 01:53:19;;;;;;;;;12.67;12.67;;;;;;;;5002997;28;9340;-76
2021/06/07 01:55:48;;;;;;;;;12.33;10.67;;;;;;;;5005708;28;9320;-78
2021/06/07 01:58:18;;;;;;;;;15.67;11.67;;;;;;;;5004247;28;9197;-83
2021/06/07 02:00:47;;;;;;;;;12.67;12.00;;;;;;;;5000580;28;9358;-85
2021/06/07 02:03:16;;;;;;;;;13.67;11.33;;;;;;;;5004864;28;9208;-80
2021/06/07 02:05:45;;;;;;;;;11.67;11.67;;;;;;;;5004145;28;9367;-77
2021/06/07 02:08:14;;;;;;;;;12.00;12.00;;;;;;;;5002132;28;9390;-79
2021/06/07 02:10:44;;;;;;;;;11.67;11.67;;;;;;;;5004584;28;9540;-83
2021/06/07 02:13:12;;;;;;;;;13.67;12.00;;;;;;;;5002780;28;9424;-78
2021/06/07 02:15:41;;;;;;;;;12.75;12.75;;;;;;;;5005588;28;9409;-80
2021/06/07 02:18:10;;;;;;;;;13.67;11.00;;;;;;;;5003157;28;9514;-81
2021/06/07 02:20:38;;;;;;;;;11.00;10.00;;;;;;;;5005006;28;9335;-80
2021/06/07 02:23:05;;;;;;;;;13.67;13.33;;;;;;;;5004692;28;9420;-79
2021/06/07 02:25:32;;;;;;;;;11.33;8.00;;;;;;;;5000453;28;9397;-80
2021/06/07 02:27:59;;;;;;;;;17.00;12.33;;;;;;;;5002890;28;9365;-79
2021/06/07 02:30:27;;;;;;;;;13.67;13.67;;;;;;;;4998038;28;9295;-80
2021/06/07 02:32:58;;;;;;;;;14.00;14.00;;;;;;;;5002420;28;9412;-81
2021/06/07 02:35:25;;;;;;;;;13.00;12.00;;;;;;;;5001338;28;9300;-82
2021/06/07 02:37:54;;;;;;;;;13.33;13.33;;;;;;;;5001989;28;9306;-83
2021/06/07 02:40:23;;;;;;;;;12.33;12.33;;;;;;;;5001107;28;9282;-83
2021/06/07 02:42:50;;;;;;;;;10.67;10.67;;;;;;;;5003052;28;9364;-80
2021/06/07 02:45:19;;;;;;;;;17.33;12.00;;;;;;;;5004486;28;9510;-81
2021/06/07 02:47:48;;;;;;;;;13.00;13.00;;;;;;;;5002014;28;9467;-84
2021/06/07 02:50:19;;;;;;;;;16.75;16.75;;;;;;;;5005708;28;9357;-78
2021/06/07 02:52:49;;;;;;;;;12.00;12.00;;;;;;;;5005411;28;9409;-83
2021/06/07 02:55:19;;;;;;;;;19.75;15.00;;;;;;;;4998261;28;9438;-80
2021/06/07 02:57:47;;;;;;;;;17.25;17.25;;;;;;;;4996322;28;9519;-80
2021/06/07 03:00:23;;;;;;;;;13.50;11.75;;;;;;;;5001797;28;9659;-81
2021/06/07 03:02:50;;;;;;;;;18.00;18.00;;;;;;;;4996904;28;9429;-80
2021/06/07 03:05:18;;;;;;;;;14.25;14.25;;;;;;;;5000956;28;9581;-79
2021/06/07 03:07:45;;;;;;;;;15.33;15.00;;;;;;;;5000808;28;9606;-76
2021/06/07 03:10:13;;;;;;;;;11.00;11.00;;;;;;;;4998047;28;9491;-81
2021/06/07 03:12:41;;;;;;;;;16.25;15.50;;;;;;;;5004037;28;9524;-83
2021/06/07 03:15:10;;;;;;;;;21.75;16.25;;;;;;;;5000965;28;9670;-83
2021/06/07 03:17:38;;;;;;;;;14.00;14.00;;;;;;;;4999730;28;9726;-80
2021/06/07 03:20:06;;;;;;;;;14.75;12.25;;;;;;;;5000115;28;9486;-82
2021/06/07 03:22:34;;;;;;;;;16.75;15.25;;;;;;;;5007685;28;9595;-83
2021/06/07 03:25:02;;;;;;;;;19.50;18.00;;;;;;;;4999276;28;9661;-80
2021/06/07 03:27:28;;;;;;;;;15.75;15.75;;;;;;;;5003309;28;10349;-84
2021/06/07 03:29:55;;;;;;;;;13.25;10.75;;;;;;;;5001182;28;9610;-82
2021/06/07 03:32:22;;;;;;;;;19.50;15.00;;;;;;;;5001718;28;9840;-77
2021/06/07 03:34:49;;;;;;;;;14.25;14.25;;;;;;;;5003921;28;9856;-83
2021/06/07 03:37:15;;;;;;;;;13.75;13.25;;;;;;;;5001966;28;9564;-80
2021/06/07 03:39:44;;;;;;;;;16.00;16.00;;;;;;;;4998526;28;10492;-76
2021/06/07 03:42:11;;;;;;;;;15.25;14.00;;;;;;;;4998147;28;9885;-75
2021/06/07 03:44:38;;;;;;;;;10.25;8.75;;;;;;;;4997257;28;9907;-80
2021/06/07 03:47:05;;;;;;;;;13.25;13.25;;;;;;;;5001886;28;9974;-81
2021/06/07 03:49:32;;;;;;;;;14.00;11.00;;;;;;;;5002782;28;9861;-82
2021/06/07 03:51:59;;;;;;;;;12.75;12.25;;;;;;;;5006591;28;9813;-76
2021/06/07 03:54:26;;;;;;;;;12.25;12.25;;;;;;;;5002399;28;9721;-82
2021/06/07 03:56:54;;;;;;;;;12.25;12.25;;;;;;;;4999551;28;9817;-78
2021/06/07 03:59:22;;;;;;;;;12.25;12.25;;;;;;;;5002522;28;10098;-80
2021/06/07 04:01:49;;;;;;;;;16.50;16.50;;;;;;;;5000427;28;9850;-77
2021/06/07 04:04:16;;;;;;;;;14.25;14.25;;;;;;;;4998510;28;9917;-78
2021/06/07 04:06:43;;;;;;;;;16.25;13.25;;;;;;;;5001643;28;9917;-80
2021/06/07 04:09:10;;;;;;;;;20.50;15.50;;;;;;;;5001600;28;10245;-79
2021/06/07 04:11:36;;;;;;;;;14.75;13.50;;;;;;;;5000960;28;10248;-82
2021/06/07 04:14:05;;;;;;;;;15.25;14.50;;;;;;;;4998572;28;9945;-83
2021/06/07 04:16:31;;;;;;;;;16.50;15.00;;;;;;;;4991611;28;10154;-82
2021/06/07 04:18:59;;;;;;;;;13.50;13.50;;;;;;;;5003179;28;10210;-81
2021/06/07 04:21:26;;;;;;;;;13.75;11.25;;;;;;;;5003494;28;10186;-80
2021/06/07 04:23:52;;;;;;;;;17.00;15.00;;;;;;;;5003497;28;10032;-74
2021/06/07 04:26:19;;;;;;;;;9.00;8.00;;;;;;;;5007373;28;10108;-82
2021/06/07 04:28:47;;;;;;;;;13.25;11.00;;;;;;;;5001204;28;9951;-81
2021/06/07 04:31:15;;;;;;;;;16.75;14.50;;;;;;;;5001207;28;10036;-79
2021/06/07 04:33:42;;;;;;;;;19.25;17.00;;;;;;;;4999781;28;9968;-75
2021/06/07 04:36:09;;;;;;;;;14.50;14.50;;;;;;;;5002786;28;10100;-75
2021/06/07 04:38:36;;;;;;;;;19.75;19.75;;;;;;;;5002723;28;9939;-77
2021/06/07 04:41:03;;;;;;;;;17.50;17.50;;;;;;;;5002895;28;9881;-75
2021/06/07 04:43:30;;;;;;;;;18.75;17.25;;;;;;;;5001045;28;9990;-75
2021/06/07 04:45:57;;;;;;;;;18.75;16.50;;;;;;;;5001461;28;9829;-75
2021/06/07 04:48:25;;;;;;;;;15.00;15.00;;;;;;;;5002132;28;9971;-75
2021/06/07 04:50:52;;;;;;;;;19.00;17.50;;;;;;;;5001740;28;9798;-75
2021/06/07 04:53:19;;;;;;;;;17.50;17.50;;;;;;;;5003215;28;9895;-75
2021/06/07 04:55:48;;;;;;;;;23.25;22.25;;;;;;;;5002646;28;9721;-76
2021/06/07 04:58:17;;;;;;;;;24.00;17.50;;;;;;;;5002047;28;10096;-74
2021/06/07 05:00:47;;;;;;;;;20.75;17.00;;;;;;;;5003350;28;9896;-75
2021/06/07 05:03:15;;;;;;;;;19.25;17.00;;;;;;;;5000286;28;10710;-75
2021/06/07 05:05:44;;;;;;;;;22.25;21.00;;;;;;;;5000496;28;10186;-75
2021/06/07 05:08:11;;;;;;;;;22.00;22.00;;;;;;;;5001898;28;10047;-75
2021/06/07 05:10:38;;;;;;;;;19.25;19.25;;;;;;;;4994648;28;9958;-75
2021/06/07 05:13:05;;;;;;;;;27.25;23.75;;;;;;;;5001728;28;10170;-76
2021/06/07 05:15:32;;;;;;;;;20.75;20.50;;;;;;;;4996357;28;10249;-74
2021/06/07 05:17:59;;;;;;;;;19.25;17.00;;;;;;;;5000225;28;9957;-75
2021/06/07 05:20:28;;;;;;;;;23.75;22.25;;;;;;;;5001012;28;10717;-75
2021/06/07 05:22:58;;;;;;;;;23.75;22.25;;;;;;;;5003594;28;10279;-74
2021/06/07 05:25:26;;;;;;;;;28.25;26.00;;;;;;;;5000015;28;10082;-75
2021/06/07 05:27:54;;;;;;;;;25.00;23.50;;;;;;;;5003813;28;10038;-76
2021/06/07 05:30:23;;;;;;;;;21.50;20.75;;;;;;;;5003938;28;10150;-79
2021/06/07 05:32:50;;;;;;;;;23.00;21.50;;;;;;;;4998811;28;10130;-75
2021/06/07 05:35:18;;;;;;;;;31.75;30.00;;;;;;;;5003966;28;10062;-77
2021/06/07 05:37:45;;;;;;;;;31.75;23.75;;;;;;;;5005382;28;10275;-77
2021/06/07 05:40:17;;;;;;;;;24.75;24.00;;;;;;;;5005760;28;10163;-75
2021/06/07 05:42:44;;;;;;;;;29.75;27.75;;;;;;;;5003012;28;11337;-75
2021/06/07 05:45:13;;;;;;;;;27.25;23.25;;;;;;;;5004737;28;10114;-77
2021/06/07 05:47:41;;;;;;;;;27.25;27.25;;;;;;;;5003907;28;11031;-76
2021/06/07 05:50:10;;;;;;;;;34.75;30.50;;;;;;;;5005181;28;10077;-74
2021/06/07 05:52:45;;;;;;;;;22.00;22.00;;;;;;;;5004548;28;10285;-72
2021/06/07 05:55:14;;;;;;;;;26.25;24.25;;;;;;;;5003162;28;10192;-73
2021/06/07 05:57:41;;;;;;;;;28.50;28.00;;;;;;;;5002339;28;10158;-73
2021/06/07 06:00:09;;;;;;;;;36.75;30.75;;;;;;;;5002247;28;10905;-75
2021/06/07 06:02:36;;;;;;;;;25.50;24.50;;;;;;;;5005519;28;10382;-74
2021/06/07 06:05:03;;;;;;;;;33.25;29.50;;;;;;;;5001492;28;9963;-74
2021/06/07 06:07:30;;;;;;;;;28.75;26.25;;;;;;;;5001320;28;10150;-74
2021/06/07 06:09:57;;;;;;;;;25.50;25.50;;;;;;;;5001645;28;9978;-75
2021/06/07 06:12:25;;;;;;;;;30.25;27.75;;;;;;;;5000438;28;10062;-73
2021/06/07 06:14:52;;;;;;;;;25.50;25.50;;;;;;;;5000611;28;10047;-73
2021/06/07 06:17:19;;;;;;;;;25.50;25.50;;;;;;;;5002135;28;9980;-73
2021/06/07 06:19:46;;;;;;;;;25.50;22.50;;;;;;;;5004920;28;10055;-75
2021/06/07 06:22:14;;;;;;;;;31.00;27.00;;;;;;;;5001689;28;9918;-74
2021/06/07 06:24:41;;;;;;;;;29.00;27.50;;;;;;;;5006040;28;10030;-74
2021/06/07 06:27:09;;;;;;;;;38.25;37.00;;;;;;;;5003294;28;9807;-74
2021/06/07 06:29:38;;;;;;;;;29.75;26.75;;;;;;;;5004891;28;10097;-73
2021/06/07 06:32:07;;;;;;;;;30.50;29.75;;;;;;;;5003870;28;9810;-71
2021/06/07 06:34:34;;;;;;;;;29.50;28.50;;;;;;;;5003652;28;9843;-72
2021/06/07 06:37:01;;;;;;;;;27.50;26.75;;;;;;;;5004222;28;10058;-72
2021/06/07 06:39:28;;;;;;;;;29.50;25.75;;;;;;;;5001792;28;9851;-72
2021/06/07 06:41:55;;;;;;;;;30.00;28.50;;;;;;;;5005041;28;9870;-72
2021/06/07 06:44:22;;;;;;;;;30.00;30.00;;;;;;;;5003023;28;9811;-71
2021/06/07 06:46:50;;;;;;;;;29.75;27.00;;;;;;;;5004369;28;9721;-71
2021/06/07 06:49:17;;;;;;;;;24.25;24.25;;;;;;;;5003244;28;9631;-72
2021/06/07 06:51:44;;;;;;;;;27.50;25.25;;;;;;;;5003297;28;10185;-72
2021/06/07 06:54:11;;;;;;;;;20.00;20.00;;;;;;;;5004868;28;9737;-72
2021/06/07 06:56:38;;;;;;;;;19.50;19.50;;;;;;;;5003424;28;9604;-72
2021/06/07 06:59:05;;;;;;;;;25.75;24.25;;;;;;;;5007316;28;10450;-71
2021/06/07 07:01:32;;;;;;;;;27.50;26.00;;;;;;;;5002921;28;9376;-72
2021/06/07 07:04:00;;;;;;;;;24.25;23.00;;;;;;;;5004040;28;9586;-72
2021/06/07 07:06:27;;;;;;;;;25.33;24.67;;;;;;;;5004552;28;9425;-72
2021/06/07 07:08:54;;;;;;;;;22.00;21.00;;;;;;;;5002170;28;9493;-72
2021/06/07 07:11:21;;;;;;;;;25.33;23.33;;;;;;;;5003300;28;9564;-73
2021/06/07 07:13:48;;;;;;;;;28.33;26.67;;;;;;;;5000859;28;9441;-72
2021/06/07 07:16:16;;;;;;;;;26.33;23.67;;;;;;;;5002637;28;9175;-72
2021/06/07 07:18:42;;;;;;;;;26.33;24.67;;;;;;;;5003011;28;9350;-72
2021/06/07 07:21:11;;;;;;;;;23.00;23.00;;;;;;;;5003149;28;9120;-72
2021/06/07 07:23:38;;;;;;;;;21.00;21.00;;;;;;;;5004034;28;9304;-71
2021/06/07 07:26:05;;;;;;;;;27.00;22.67;;;;;;;;4998464;28;9045;-73
2021/06/07 07:28:32;;;;;;;;;23.00;23.00;;;;;;;;5001990;28;9108;-73
2021/06/07 07:30:59;;;;;;;;;24.33;22.33;;;;;;;;4999463;28;9837;-73
2021/06/07 07:33:26;;;;;;;;;22.00;22.00;;;;;;;;5005455;28;9096;-74
2021/06/07 07:35:53;;;;;;;;;23.25;18.75;;;;;;;;5000560;28;8932;-73
2021/06/07 07:38:21;;;;;;;;;25.00;23.00;;;;;;;;4999375;28;8890;-75
2021/06/07 07:40:48;;;;;;;;;25.25;23.50;;;;;;;;4997782;28;8858;-73
2021/06/07 07:43:17;;;;;;;;;24.75;23.50;;;;;;;;5003142;28;8920;-74
2021/06/07 07:45:44;;;;;;;;;23.00;19.75;;;;;;;;5002218;28;8866;-74
2021/06/07 07:48:11;;;;;;;;;24.00;19.50;;;;;;;;4993788;28;8891;-74
2021/06/07 07:50:38;;;;;;;;;26.25;22.50;;;;;;;;4998925;28;8874;-73
2021/06/07 07:53:05;;;;;;;;;20.00;20.00;;;;;;;;4997938;28;8865;-72
2021/06/07 07:55:34;;;;;;;;;25.50;21.25;;;;;;;;5000836;28;8862;-73
2021/06/07 07:58:06;;;;;;;;;21.00;21.00;;;;;;;;5001074;28;9628;-72
2021/06/07 08:00:33;;;;;;;;;18.25;17.75;;;;;;;;5001686;28;8779;-73
2021/06/07 08:03:00;;;;;;;;;23.00;20.00;;;;;;;;4998192;28;8873;-72
2021/06/07 08:05:27;;;;;;;;;24.25;24.00;;;;;;;;5000503;28;9652;-73
2021/06/07 08:07:54;;;;;;;;;18.50;17.25;;;;;;;;5002674;28;8992;-72
2021/06/07 08:10:21;;;;;;;;;19.75;19.75;;;;;;;;4999357;28;9047;-71
2021/06/07 08:12:50;;;;;;;;;23.50;22.00;;;;;;;;4997964;28;8870;-72
2021/06/07 08:15:17;;;;;;;;;17.50;14.75;;;;;;;;5000568;28;8880;-72
2021/06/07 08:17:44;;;;;;;;;21.75;20.25;;;;;;;;5001711;28;8882;-72
2021/06/07 08:20:15;;;;;;;;;20.50;17.25;;;;;;;;5001785;28;8854;-72
2021/06/07 08:22:42;;;;;;;;;21.00;20.50;;;;;;;;5002011;28;8952;-72
2021/06/07 08:25:11;;;;;;;;;17.75;17.75;;;;;;;;5003414;28;8897;-72
2021/06/07 08:27:38;;;;;;;;;24.50;23.50;;;;;;;;5002145;28;8895;-72
2021/06/07 08:30:08;;;;;;;;;20.75;20.75;;;;;;;;5002171;28;8870;-72
2021/06/07 08:32:36;;;;;;;;;22.50;20.75;;;;;;;;5001627;28;8870;-72
2021/06/07 08:35:03;;;;;;;;;24.25;24.00;;;;;;;;5003163;28;8870;-72
2021/06/07 08:37:30;;;;;;;;;19.00;19.00;;;;;;;;5001944;28;8859;-72
2021/06/07 08:39:57;;;;;;;;;22.25;22.25;;;;;;;;5002493;28;9024;-72
2021/06/07 08:42:24;;;;;;;;;23.00;21.25;;;;;;;;5003459;28;8874;-72
2021/06/07 08:44:51;;;;;;;;;24.75;23.50;;;;;;;;4999853;28;8976;-72
2021/06/07 08:47:20;;;;;;;;;21.75;20.00;;;;;;;;5000704;28;8874;-72
2021/06/07 08:49:47;;;;;;;;;23.25;21.50;;;;;;;;5000871;28;8902;-72
2021/06/07 08:52:15;;;;;;;;;19.50;18.75;;;;;;;;5003438;28;8894;-72
2021/06/07 08:54:42;;;;;;;;;21.25;20.00;;;;;;;;5001733;28;8870;-72
2021/06/07 08:57:09;;;;;;;;;16.75;16.75;;;;;;;;5001480;28;8878;-72
2021/06/07 08:59:36;;;;;;;;;20.25;20.25;;;;;;;;5004150;28;8870;-72
2021/06/07 09:02:04;;;;;;;;;18.50;18.50;;;;;;;;5001264;28;8835;-72
2021/06/07 09:04:46;;;;;;;;;17.50;17.50;;;;;;;;5005371;28;9025;-72
2021/06/07 09:07:13;;;;;;;;;18.75;18.75;;;;;;;;5005781;28;8855;-72
2021/06/07 09:09:40;;;;;;;;;16.00;15.75;;;;;;;;5007430;28;8858;-72
2021/06/07 09:12:11;;;;;;;;;16.60;16.60;;;;;;;;5003774;28;8880;-72
2021/06/07 09:14:39;;;;;;;;;19.00;19.00;;;;;;;;5002649;28;9617;-72
2021/06/07 09:17:17;;;;;;;;;22.80;21.40;;;;;;;;5004714;28;8876;-71
2021/06/07 09:19:47;;;;;;;;;21.20;20.20;;;;;;;;5005639;28;8874;-73
2021/06/07 09:22:22;;;;;;;;;21.80;20.00;;;;;;;;5004597;28;9698;-73
2021/06/07 09:25:07;;;;;;;;;23.00;23.00;;;;;;;;5002388;28;8874;-73
2021/06/07 09:27:36;;;;;;;;;19.20;18.00;;;;;;;;4998494;28;8993;-74
2021/06/07 09:30:05;;;;;;;;;15.20;15.20;;;;;;;;5004607;28;8876;-74
2021/06/07 09:32:32;;;;;;;;;21.80;19.80;;;;;;;;5003496;28;9718;-74
2021/06/07 09:35:09;;;;;;;;;23.00;22.60;;;;;;;;5003879;28;8868;-73
2021/06/07 09:37:37;;;;;;;;;22.00;22.00;;;;;;;;4998642;28;8991;-75
2021/06/07 09:40:23;;;;;;;;;21.60;20.20;;;;;;;;5006243;28;8910;-74
2021/06/07 09:42:57;;;;;;;;;15.80;15.80;;;;;;;;5002218;28;9724;-74
2021/06/07 09:45:47;;;;;;;;;17.40;17.40;;;;;;;;5001577;28;8888;-75
2021/06/07 09:48:19;;;;;;;;;16.40;15.00;;;;;;;;5001309;28;8884;-74
2021/06/07 09:50:58;;;;;;;;;20.60;18.60;;;;;;;;5003075;28;8866;-75
2021/06/07 09:53:48;;;;;;;;;17.60;15.60;;;;;;;;5002412;28;9618;-73
2021/06/07 09:56:15;;;;;;;;;19.60;19.20;;;;;;;;5020677;28;8951;-74
2021/06/07 09:58:44;;;;;;;;;18.80;17.00;;;;;;;;5003545;28;8866;-74
2021/06/07 10:01:13;;;;;;;;;15.80;14.40;;;;;;;;5000005;28;8837;-72
2021/06/07 10:03:43;;;;;;;;;13.60;13.60;;;;;;;;5000655;28;8894;-71
2021/06/07 10:06:29;;;;;;;;;19.60;18.60;;;;;;;;5007664;28;8867;-72
2021/06/07 10:08:58;;;;;;;;;15.20;15.20;;;;;;;;5002823;28;8831;-73
2021/06/07 10:11:27;;;;;;;;;24.20;23.00;;;;;;;;4999653;28;8896;-74
2021/06/07 10:14:08;;;;;;;;;17.60;17.60;;;;;;;;5003885;28;8859;-73
2021/06/07 10:16:36;;;;;;;;;454.25;424.50;;;;;;;;5004027;28;8873;-74
2021/06/07 10:19:06;;;;;;;;;20.60;18.80;;;;;;;;5004762;28;8882;-73
2021/06/07 10:21:35;;;;;;;;;94.80;89.00;;;;;;;;5004812;28;8871;-73
2021/06/07 10:24:02;;;;;;;;;15.40;13.80;;;;;;;;5005332;28;8912;-73
2021/06/07 10:26:29;;;;;;;;;275.50;259.75;;;;;;;;5001893;28;8869;-73
2021/06/07 10:28:57;;;;;;;;;574.60;530.20;;;;;;;;4997826;28;8881;-74
2021/06/07 10:31:25;;;;;;;;;887.17;828.17;;;;;;;;5001914;28;8819;-73
2021/06/07 10:34:03;;;;;;;;;5.80;5.80;;;;;;;;5003474;28;8989;-72
2021/06/07 10:36:51;;;;;;;;;2217.57;1762.14;;;;;;;;4993033;28;8873;-72
2021/06/07 10:39:30;;;;;;;;;529.20;492.00;;;;;;;;4999147;28;8878;-72
2021/06/07 10:42:20;;;;;;;;;88.00;82.75;;;;;;;;5002611;28;8908;-75
2021/06/07 10:44:53;;;;;;;;;56.50;45.00;;;;;;;;4994723;28;8892;-74
2021/06/07 10:47:22;;;;;;;;;1280.20;1054.40;;;;;;;;4995670;28;8849;-74
2021/06/07 10:49:55;;;;;;;;;557.67;553.33;;;;;;;;5003306;28;8900;-74
2021/06/07 10:52:28;;;;;;;;;11.40;10.80;;;;;;;;4999848;28;8862;-74
2021/06/07 10:54:59;;;;;;;;;9.80;9.40;;;;;;;;4996452;28;9001;-75
2021/06/07 10:57:40;;;;;;;;;9.80;9.00;;;;;;;;5001670;28;8874;-75
2021/06/07 11:00:22;;;;;;;;;11.00;11.00;;;;;;;;5001452;28;8854;-74
2021/06/07 11:02:50;;;;;;;;;12.20;12.20;;;;;;;;4998882;28;8887;-74
2021/06/07 11:05:18;;;;;;;;;13.00;13.00;;;;;;;;4997942;28;8878;-73
2021/06/07 11:08:02;;;;;;;;;12.00;12.00;;;;;;;;4999293;28;9680;-74
2021/06/07 11:10:31;;;;;;;;;10.00;8.40;;;;;;;;4998317;28;8865;-75
2021/06/07 11:13:00;;;;;;;;;9.40;9.40;;;;;;;;4997115;28;8850;-73
2021/06/07 11:15:29;;;;;;;;;11.40;11.40;;;;;;;;5003397;28;8870;-73
2021/06/07 11:18:28;;;;;;;;;9.40;9.40;;;;;;;;5000905;28;8871;-72
2021/06/07 11:20:58;;;;;;;;;9.60;9.60;;;;;;;;5001823;28;8901;-74
2021/06/07 11:23:38;;;;;;;;;9.60;9.60;;;;;;;;5000578;28;8882;-73
2021/06/07 11:26:06;;;;;;;;;8.00;8.00;;;;;;;;4994995;28;8906;-72
2021/06/07 11:28:44;;;;;;;;;9.80;9.80;;;;;;;;4996189;28;8924;-74
2021/06/07 11:31:42;;;;;;;;;10.80;10.60;;;;;;;;5001959;28;8973;-73
2021/06/07 11:34:10;;;;;;;;;11.60;10.80;;;;;;;;4934283;28;8875;-75
2021/06/07 11:36:46;;;;;;;;;9.40;8.40;;;;;;;;4982331;28;9861;-77
2021/06/07 11:39:16;;;;;;;;;9.20;8.20;;;;;;;;4992095;28;9637;-77
2021/06/07 11:41:52;;;;;;;;;8.00;8.00;;;;;;;;4998830;28;9601;-80
2021/06/07 11:44:20;;;;;;;;;8.00;8.00;;;;;;;;4997339;28;8858;-75
2021/06/07 11:46:59;;;;;;;;;7.60;6.00;;;;;;;;4999523;28;8884;-77
2021/06/07 11:49:27;;;;;;;;;10.40;10.40;;;;;;;;4992891;28;9005;-77
2021/06/07 11:52:06;;;;;;;;;10.00;8.00;;;;;;;;5001841;28;9729;-75
2021/06/07 11:55:14;;;;;;;;;8.20;8.20;;;;;;;;5003438;28;8912;-79
2021/06/07 11:57:41;;;;;;;;;6.40;6.40;;;;;;;;4960653;28;8911;-78
2021/06/07 12:00:09;;;;;;;;;5.60;5.60;;;;;;;;4989228;28;8914;-76
2021/06/07 12:02:36;;;;;;;;;9.00;8.00;;;;;;;;5002351;28;8903;-77
2021/06/07 12:05:06;;;;;;;;;7.20;6.20;;;;;;;;4997884;28;8919;-78
2021/06/07 12:07:36;;;;;;;;;9.00;7.60;;;;;;;;4999609;28;8866;-77
2021/06/07 12:10:06;;;;;;;;;10.00;8.40;;;;;;;;4994797;28;9819;-77
2021/06/07 12:12:34;;;;;;;;;5.20;5.20;;;;;;;;5000576;28;8862;-75
2021/06/07 12:15:09;;;;;;;;;5.00;5.00;;;;;;;;5002591;28;8862;-79
2021/06/07 12:17:43;;;;;;;;;5.80;4.20;;;;;;;;4993211;28;8880;-75
2021/06/07 12:20:10;;;;;;;;;7.60;6.00;;;;;;;;4999171;28;8874;-78
2021/06/07 12:22:39;;;;;;;;;5.00;5.00;;;;;;;;4997446;28;8959;-78
2021/06/07 12:25:18;;;;;;;;;6.40;6.40;;;;;;;;5003791;28;8902;-78
2021/06/07 12:30:31;;;;;;;;;6.20;6.20;;;;;;;;4999743;28;8783;-75
2021/06/07 12:32:58;;;;;;;;;6.60;4.60;;;;;;;;5000983;28;9585;-75
2021/06/07 12:35:28;;;;;;;;;5.20;4.00;;;;;;;;4994872;28;8872;-79
2021/06/07 12:37:56;;;;;;;;;4.80;4.80;;;;;;;;4998468;28;8893;-81
2021/06/07 12:40:31;;;;;;;;;5.00;5.00;;;;;;;;5005401;28;8971;-76
2021/06/07 12:43:12;;;;;;;;;8.20;7.20;;;;;;;;5006073;28;8882;-75
2021/06/07 12:45:41;;;;;;;;;6.60;5.80;;;;;;;;4997675;28;8875;-78
2021/06/07 12:48:17;;;;;;;;;5.20;5.20;;;;;;;;5003347;28;8875;-78
2021/06/07 12:50:46;;;;;;;;;5.60;5.60;;;;;;;;5004195;28;9008;-76
2021/06/07 12:53:13;;;;;;;;;6.80;6.80;;;;;;;;5005816;28;8867;-78
2021/06/07 12:55:44;;;;;;;;;7.80;7.80;;;;;;;;5007976;28;8868;-77
2021/06/07 12:58:12;;;;;;;;;6.20;6.20;;;;;;;;5001885;28;8874;-77
2021/06/07 13:00:41;;;;;;;;;7.80;7.80;;;;;;;;5001094;28;8810;-82
2021/06/07 13:03:21;;;;;;;;;7.20;7.20;;;;;;;;5000335;28;9024;-74
2021/06/07 13:05:59;;;;;;;;;7.80;6.80;;;;;;;;5005603;28;8937;-77
2021/06/07 13:08:26;;;;;;;;;6.00;6.00;;;;;;;;5002164;28;8878;-75
2021/06/07 13:10:58;;;;;;;;;6.60;6.60;;;;;;;;5000083;28;8976;-78
2021/06/07 13:13:31;;;;;;;;;4.20;4.20;;;;;;;;5005641;28;8874;-80
2021/06/07 13:16:00;;;;;;;;;7.20;7.20;;;;;;;;5004912;28;8846;-78
2021/06/07 13:18:27;;;;;;;;;5.00;5.00;;;;;;;;5005601;28;8979;-77
2021/06/07 13:21:02;;;;;;;;;5.00;5.00;;;;;;;;5007263;28;9008;-78
2021/06/07 13:23:34;;;;;;;;;6.60;6.60;;;;;;;;4994480;28;8855;-79
2021/06/07 13:26:18;;;;;;;;;6.40;6.40;;;;;;;;5004193;28;8943;-76
2021/06/07 13:28:45;;;;;;;;;6.00;6.00;;;;;;;;5006090;28;8985;-76
2021/06/07 13:31:12;;;;;;;;;6.00;6.00;;;;;;;;4999144;28;9736;-78
2021/06/07 13:33:40;;;;;;;;;4.20;4.20;;;;;;;;5004661;28;9029;-76
2021/06/07 13:36:08;;;;;;;;;4.80;4.80;;;;;;;;4997025;28;9371;-78
2021/06/07 13:38:37;;;;;;;;;7.20;6.60;;;;;;;;5002152;28;8880;-79
2021/06/07 13:41:11;;;;;;;;;6.20;6.00;;;;;;;;4998952;28;8885;-79
2021/06/07 13:43:40;;;;;;;;;4.80;4.80;;;;;;;;4999719;28;9486;-76
2021/06/07 13:46:23;;;;;;;;;5.20;5.20;;;;;;;;5003828;28;8881;-78
2021/06/07 13:48:50;;;;;;;;;5.00;5.00;;;;;;;;5003003;28;8871;-84
2021/06/07 13:51:19;;;;;;;;;7.00;5.40;;;;;;;;5004145;28;9001;-81
2021/06/07 13:53:46;;;;;;;;;6.00;6.00;;;;;;;;5005259;28;8870;-79
2021/06/07 13:56:15;;;;;;;;;5.80;5.80;;;;;;;;5007016;28;9013;-81
2021/06/07 13:58:44;;;;;;;;;6.60;6.20;;;;;;;;5005412;28;8873;-81
2021/06/07 14:01:13;;;;;;;;;6.00;6.00;;;;;;;;5005023;28;8821;-79
2021/06/07 14:03:40;;;;;;;;;6.40;6.40;;;;;;;;5005988;28;8975;-80
2021/06/07 14:06:08;;;;;;;;;6.40;4.80;;;;;;;;5004750;28;9798;-75
2021/06/07 14:08:37;;;;;;;;;7.60;7.00;;;;;;;;4998687;28;8997;-77
2021/06/07 14:11:06;;;;;;;;;5.20;5.20;;;;;;;;5004250;28;8876;-83
2021/06/07 14:13:33;;;;;;;;;3.80;3.80;;;;;;;;5005800;28;8884;-79
2021/06/07 14:16:02;;;;;;;;;3.00;3.00;;;;;;;;5003876;28;8901;-80
2021/06/07 14:18:29;;;;;;;;;6.60;6.60;;;;;;;;5004571;28;8903;-78
2021/06/07 14:20:57;;;;;;;;;7.00;7.00;;;;;;;;5002306;28;8886;-81
2021/06/07 14:26:12;;;;;;;;;6.40;6.00;;;;;;;;5005313;28;8871;-78
2021/06/07 14:28:40;;;;;;;;;4.60;4.60;;;;;;;;5004308;28;8977;-79
2021/06/07 14:31:09;;;;;;;;;5.00;5.00;;;;;;;;5004027;28;8961;-77
2021/06/07 14:33:36;;;;;;;;;4.80;4.80;;;;;;;;5004937;28;8846;-76
2021/06/07 14:36:06;;;;;;;;;3.40;3.40;;;;;;;;5005310;28;8928;-81
2021/06/07 14:38:33;;;;;;;;;6.40;6.40;;;;;;;;5006225;28;8900;-78
2021/06/07 14:41:03;;;;;;;;;7.60;7.60;;;;;;;;5004085;28;8882;-76
2021/06/07 14:43:30;;;;;;;;;6.40;6.00;;;;;;;;5003643;28;8870;-80
2021/06/07 14:45:58;;;;;;;;;6.80;6.80;;;;;;;;5003259;28;8884;-75
2021/06/07 14:48:27;;;;;;;;;6.00;6.00;;;;;;;;5002046;28;8872;-76
2021/06/07 14:50:55;;;;;;;;;9.60;5.60;;;;;;;;5004968;28;8870;-80
2021/06/07 14:53:23;;;;;;;;;6.00;6.00;;;;;;;;5020058;28;8879;-81